createdAt,value
2023-07-21T00:02:54.522Z,2.70
2023-07-21T00:05:59.596Z,2.70
2023-07-21T00:09:10.382Z,2.90
2023-07-21T00:12:21.192Z,2.80
2023-07-21T00:15:31.942Z,2.70
2023-07-21T00:18:43.808Z,3.10
2023-07-21T00:21:57.203Z,2.50
2023-07-21T00:25:12.135Z,2.90
2023-07-21T00:28:24.311Z,3.00
2023-07-21T00:31:35.156Z,2.90
2023-07-21T00:34:45.921Z,2.90
2023-07-21T00:37:57.958Z,3.10
2023-07-21T00:41:10.144Z,2.90
2023-07-21T00:44:24.686Z,3.00
2023-07-21T00:47:35.424Z,2.70
2023-07-21T00:50:46.691Z,3.00
2023-07-21T00:53:59.461Z,2.80
2023-07-21T00:57:10.296Z,2.80
2023-07-21T01:00:21.034Z,2.70
2023-07-21T01:03:33.986Z,2.50
2023-07-21T01:06:46.303Z,2.80
2023-07-21T01:09:57.660Z,2.90
2023-07-21T01:13:10.617Z,2.50
2023-07-21T01:16:21.440Z,2.70
2023-07-21T01:19:32.235Z,2.60
2023-07-21T01:22:38.012Z,2.60
2023-07-21T01:25:48.833Z,2.80
2023-07-21T01:28:52.262Z,2.60
2023-07-21T01:32:20.765Z,3.00
2023-07-21T01:35:31.548Z,3.10
2023-07-21T01:38:42.411Z,3.00
2023-07-21T01:41:54.353Z,2.70
2023-07-21T01:45:05.515Z,3.10
2023-07-21T01:48:16.278Z,3.20
2023-07-21T01:51:35.513Z,2.60
2023-07-21T01:54:42.274Z,2.90
2023-07-21T01:57:53.643Z,2.90
2023-07-21T02:01:04.388Z,2.70
2023-07-21T02:04:16.133Z,3.00
2023-07-21T02:07:28.850Z,2.80
2023-07-21T02:10:51.153Z,2.70
2023-07-21T02:14:04.477Z,2.60
2023-07-21T02:17:21.192Z,3.40
2023-07-21T02:20:40.722Z,2.90
2023-07-21T02:23:54.458Z,3.00
2023-07-21T02:27:07.243Z,3.00
2023-07-21T02:30:18.016Z,3.10
2023-07-21T02:33:30.768Z,3.00
2023-07-21T02:36:42.890Z,2.90
2023-07-21T02:39:55.675Z,3.30
2023-07-21T02:43:06.404Z,2.80
2023-07-21T02:46:26.074Z,3.00
2023-07-21T02:49:38.368Z,3.30
2023-07-21T02:52:40.568Z,3.00
2023-07-21T02:55:52.592Z,3.50
2023-07-21T02:59:03.935Z,3.00
2023-07-21T03:02:18.698Z,2.80
2023-07-21T03:05:30.534Z,2.90
2023-07-21T03:08:42.252Z,3.00
2023-07-21T03:11:54.659Z,3.10
2023-07-21T03:15:05.554Z,3.00
2023-07-21T03:18:17.303Z,3.00
2023-07-21T03:21:28.602Z,2.60
2023-07-21T03:24:39.648Z,3.00
2023-07-21T03:27:53.487Z,3.00
2023-07-21T03:31:12.647Z,2.90
2023-07-21T03:34:16.906Z,3.00
2023-07-21T03:37:20.898Z,3.30
2023-07-21T03:40:32.854Z,3.20
2023-07-21T03:43:44.743Z,3.40
2023-07-21T03:46:55.517Z,3.70
2023-07-21T03:50:24.078Z,4.30
2023-07-21T03:53:38.062Z,3.70
2023-07-21T03:57:00.183Z,4.90
2023-07-21T04:00:21.324Z,4.80
2023-07-21T04:03:32.576Z,5.40
2023-07-21T04:06:43.461Z,5.60
2023-07-21T04:10:11.005Z,5.60
2023-07-21T04:13:22.944Z,5.10
2023-07-21T04:16:37.703Z,4.90
2023-07-21T04:19:49.602Z,4.50
2023-07-21T04:23:01.409Z,5.00
2023-07-21T04:26:12.642Z,5.10
2023-07-21T04:29:35.129Z,4.30
2023-07-21T04:32:50.473Z,4.40
2023-07-21T04:36:01.271Z,4.10
2023-07-21T04:39:12.243Z,4.50
2023-07-21T04:42:22.974Z,3.80
2023-07-21T04:45:34.799Z,4.20
2023-07-21T04:48:47.582Z,4.20
2023-07-21T04:51:58.370Z,3.40
2023-07-21T04:55:09.246Z,3.30
2023-07-21T04:58:20.180Z,3.40
2023-07-21T05:01:47.669Z,4.10
2023-07-21T05:05:00.762Z,4.30
2023-07-21T05:08:13.691Z,3.50
2023-07-21T05:11:25.496Z,3.40
2023-07-21T05:14:36.876Z,3.20
2023-07-21T05:17:48.949Z,3.20
2023-07-21T05:21:01.717Z,3.10
2023-07-21T05:24:14.407Z,3.00
2023-07-21T05:27:25.160Z,3.10
2023-07-21T05:30:44.226Z,2.90
2023-07-21T05:33:55.294Z,2.60
2023-07-21T05:37:06.069Z,2.90
2023-07-21T05:40:18.818Z,2.80
2023-07-21T05:43:32.334Z,2.60
2023-07-21T05:46:43.109Z,2.70
2023-07-21T05:49:56.594Z,2.90
2023-07-21T05:53:10.326Z,2.90
2023-07-21T05:56:25.887Z,2.80
2023-07-21T05:59:38.185Z,3.10
2023-07-21T06:02:50.758Z,3.20
2023-07-21T06:06:03.686Z,2.80
2023-07-21T06:09:23.948Z,3.00
2023-07-21T06:12:36.783Z,3.60
2023-07-21T06:15:48.640Z,2.80
2023-07-21T06:19:12.440Z,2.80
2023-07-21T06:22:24.851Z,2.90
2023-07-21T06:25:45.588Z,3.20
2023-07-21T06:29:05.838Z,2.70
2023-07-21T06:32:33.353Z,2.90
2023-07-21T06:35:45.407Z,2.70
2023-07-21T06:38:57.195Z,2.70
2023-07-21T06:42:09.035Z,2.60
2023-07-21T06:45:21.626Z,2.80
2023-07-21T06:48:24.360Z,2.40
2023-07-21T06:51:35.510Z,2.20
2023-07-21T06:54:57.680Z,2.20
2023-07-21T06:58:10.479Z,2.40
2023-07-21T07:01:22.277Z,2.60
2023-07-21T07:04:33.233Z,2.50
2023-07-21T07:07:45.060Z,2.50
2023-07-21T07:10:58.349Z,2.50
2023-07-21T07:14:10.431Z,2.50
2023-07-21T07:17:21.211Z,2.40
2023-07-21T07:20:42.517Z,2.30
2023-07-21T07:23:55.556Z,2.30
2023-07-21T07:27:07.924Z,2.70
2023-07-21T07:30:20.713Z,2.70
2023-07-21T07:33:42.811Z,2.40
2023-07-21T07:36:55.843Z,2.30
2023-07-21T07:40:07.846Z,2.50
2023-07-21T07:43:29.667Z,2.50
2023-07-21T07:46:38.068Z,2.80
2023-07-21T07:50:08.789Z,3.00
2023-07-21T07:53:20.165Z,2.80
2023-07-21T07:56:31.944Z,2.90
2023-07-21T07:59:37.304Z,3.10
2023-07-21T08:02:50.098Z,2.50
2023-07-21T08:06:02.298Z,3.10
2023-07-21T08:09:23.373Z,3.50
2023-07-21T08:12:38.842Z,2.80
2023-07-21T08:15:49.724Z,2.70
2023-07-21T08:19:08.933Z,3.20
2023-07-21T08:22:21.897Z,2.90
2023-07-21T08:25:34.092Z,3.00
2023-07-21T08:28:47.492Z,3.40
2023-07-21T08:31:58.283Z,2.80
2023-07-21T08:35:17.439Z,2.90
2023-07-21T08:38:28.187Z,3.00
2023-07-21T08:41:45.742Z,2.80
2023-07-21T08:44:57.491Z,2.80
2023-07-21T08:48:09.177Z,2.60
2023-07-21T08:51:30.730Z,2.70
2023-07-21T08:54:44.098Z,2.50
2023-07-21T08:57:48.841Z,2.60
2023-07-21T09:00:52.119Z,2.70
2023-07-21T09:04:08.748Z,2.30
2023-07-21T09:07:21.616Z,2.00
2023-07-21T09:10:34.860Z,2.50
2023-07-21T09:13:59.188Z,2.50
2023-07-21T09:17:10.009Z,2.30
2023-07-21T09:20:24.169Z,2.50
2023-07-21T09:23:35.920Z,2.30
2023-07-21T09:26:48.627Z,2.00
2023-07-21T09:30:02.611Z,2.00
2023-07-21T09:33:13.464Z,2.10
2023-07-21T09:36:25.893Z,1.70
2023-07-21T09:39:39.890Z,1.90
2023-07-21T09:42:52.674Z,2.10
2023-07-21T09:49:38.678Z,2.00
2023-07-21T09:52:51.538Z,2.20
2023-07-21T09:56:02.294Z,2.10
2023-07-21T09:59:15.170Z,1.90
2023-07-21T10:02:29.287Z,2.10
2023-07-21T10:05:40.413Z,2.30
2023-07-21T10:08:51.139Z,2.00
2023-07-21T10:12:02.991Z,1.90
2023-07-21T10:15:22.853Z,2.30
2023-07-21T10:18:20.600Z,2.10
2023-07-21T10:21:23.790Z,2.10
2023-07-21T10:24:52.225Z,2.40
2023-07-21T10:28:06.802Z,2.40
2023-07-21T10:32:03.230Z,2.10
2023-07-21T10:35:21.241Z,2.00
2023-07-21T10:38:56.832Z,2.40
2023-07-21T10:42:09.457Z,2.20
2023-07-21T10:45:20.246Z,2.40
2023-07-21T10:48:44.385Z,2.40
2023-07-21T10:51:56.202Z,2.10
2023-07-21T10:55:09.650Z,1.90
2023-07-21T10:58:27.333Z,1.90
2023-07-21T11:01:38.117Z,2.10
2023-07-21T11:04:49.779Z,2.10
2023-07-21T11:08:06.262Z,2.10
2023-07-21T11:11:17.177Z,2.20
2023-07-21T11:14:28.609Z,2.20
2023-07-21T11:17:17.934Z,2.10
2023-07-21T11:20:31.381Z,2.30
2023-07-21T11:23:42.165Z,2.30
2023-07-21T11:32:15.928Z,2.30
2023-07-21T11:35:29.271Z,2.30
2023-07-21T11:38:49.159Z,2.10
2023-07-21T11:41:59.549Z,2.40
2023-07-21T11:45:10.585Z,2.00
2023-07-21T11:48:22.200Z,2.60
2023-07-21T11:51:35.003Z,2.10
2023-07-21T11:54:49.789Z,2.30
2023-07-21T11:58:01.319Z,2.10
2023-07-21T12:01:12.739Z,2.20
2023-07-21T12:04:40.535Z,2.30
2023-07-21T12:08:08.069Z,2.20
2023-07-21T12:11:20.193Z,2.10
2023-07-21T12:14:31.775Z,2.20
2023-07-21T12:17:43.832Z,2.30
2023-07-21T12:21:04.383Z,2.50
2023-07-21T12:24:15.876Z,2.00
2023-07-21T12:27:27.816Z,2.20
2023-07-21T12:30:55.732Z,2.30
2023-07-21T12:34:06.994Z,2.10
2023-07-21T12:37:28.165Z,2.40
2023-07-21T12:40:32.564Z,2.30
2023-07-21T12:47:17.713Z,2.60
2023-07-21T12:50:29.955Z,2.40
2023-07-21T12:53:41.683Z,3.90
2023-07-21T12:56:53.534Z,3.10
2023-07-21T13:00:21.091Z,2.70
2023-07-21T13:03:33.257Z,2.70
2023-07-21T13:06:44.685Z,3.20
2023-07-21T13:09:57.898Z,3.80
2023-07-21T13:13:10.387Z,3.20
2023-07-21T13:16:29.993Z,3.00
2023-07-21T13:19:49.761Z,2.60
2023-07-21T13:23:20.573Z,2.90
2023-07-21T13:26:28.858Z,2.60
2023-07-21T13:29:41.386Z,2.60
2023-07-21T13:32:52.310Z,2.70
2023-07-21T13:35:57.294Z,2.60
2023-07-21T13:39:09.004Z,2.60
2023-07-21T13:42:28.613Z,2.50
2023-07-21T13:45:56.175Z,2.40
2023-07-21T13:48:59.282Z,2.40
2023-07-21T13:52:11.443Z,2.50
2023-07-21T13:55:23.902Z,2.30
2023-07-21T13:58:43.883Z,2.60
2023-07-21T14:02:03.316Z,2.30
2023-07-21T14:05:14.429Z,2.40
2023-07-21T14:08:33.959Z,2.30
2023-07-21T14:11:45.149Z,2.40
2023-07-21T14:14:58.016Z,2.40
2023-07-21T14:18:10.590Z,2.70
2023-07-21T14:21:23.957Z,2.80
2023-07-21T14:24:37.310Z,2.70
2023-07-21T14:27:48.393Z,2.80
2023-07-21T14:31:00.536Z,3.00
2023-07-21T14:34:11.375Z,2.70
2023-07-21T14:37:22.471Z,4.10
2023-07-21T14:40:33.554Z,4.00
2023-07-21T14:43:44.589Z,3.70
2023-07-21T14:46:57.392Z,4.20
2023-07-21T14:50:17.089Z,3.80
2023-07-21T14:53:36.889Z,3.30
2023-07-21T14:56:54.385Z,2.90
2023-07-21T15:00:05.284Z,2.60
2023-07-21T15:03:24.496Z,2.90
2023-07-21T15:06:35.574Z,2.80
2023-07-21T15:09:46.316Z,3.20
2023-07-21T15:12:57.176Z,3.40
2023-07-21T15:16:07.980Z,3.00
2023-07-21T15:19:20.349Z,2.80
2023-07-21T15:22:39.561Z,2.60
2023-07-21T15:25:50.828Z,3.00
2023-07-21T15:29:03.398Z,3.00
2023-07-21T15:32:15.161Z,2.80
2023-07-21T15:35:28.195Z,3.20
2023-07-21T15:38:39.828Z,3.60
2023-07-21T15:41:50.617Z,3.10
2023-07-21T15:45:01.427Z,2.60
2023-07-21T15:48:12.492Z,2.60
2023-07-21T15:51:41.189Z,2.70
2023-07-21T15:54:53.525Z,2.80
2023-07-21T15:58:04.302Z,2.90
2023-07-21T16:01:24.492Z,2.70
2023-07-21T16:04:37.060Z,2.40
2023-07-21T16:07:49.338Z,2.60
2023-07-21T16:11:00.240Z,2.80
2023-07-21T16:14:12.027Z,2.90
2023-07-21T16:17:25.454Z,3.00
2023-07-21T16:20:36.347Z,3.20
2023-07-21T16:23:47.598Z,3.00
2023-07-21T16:26:58.362Z,3.00
2023-07-21T16:30:17.574Z,2.80
2023-07-21T16:33:29.905Z,3.20
2023-07-21T16:36:41.747Z,3.00
2023-07-21T16:39:53.663Z,9.50
2023-07-21T16:43:05.433Z,11.90
2023-07-21T16:46:16.356Z,7.90
2023-07-21T16:49:27.170Z,5.20
2023-07-21T16:52:47.465Z,26.70
2023-07-21T16:55:58.329Z,6.60
2023-07-21T16:59:09.648Z,4.60
2023-07-21T17:02:13.177Z,4.30
2023-07-21T17:05:40.921Z,5.60
2023-07-21T17:09:00.113Z,3.70
2023-07-21T17:12:12.668Z,3.60
2023-07-21T17:15:25.237Z,3.80
2023-07-21T17:18:46.138Z,3.60
2023-07-21T17:21:58.840Z,3.50
2023-07-21T17:25:16.679Z,4.50
2023-07-21T17:28:28.170Z,4.70
2023-07-21T17:31:40.369Z,5.90
2023-07-21T17:34:52.002Z,5.50
2023-07-21T17:38:13.174Z,5.40
2023-07-21T17:41:24.461Z,5.20
2023-07-21T17:44:35.460Z,4.60
2023-07-21T17:47:55.751Z,4.90
2023-07-21T17:51:14.894Z,4.90
2023-07-21T17:54:35.036Z,6.90
2023-07-21T17:57:48.683Z,11.00
2023-07-21T18:01:09.224Z,4.80
2023-07-21T18:04:20.005Z,26.90
2023-07-21T18:07:33.081Z,7.10
2023-07-21T18:10:46.713Z,5.80
2023-07-21T18:13:58.757Z,5.90
2023-07-21T18:17:26.438Z,15.20
2023-07-21T18:20:38.387Z,18.20
2023-07-21T18:23:49.866Z,13.80
2023-07-21T18:27:01.241Z,6.30
2023-07-21T18:30:28.801Z,5.90
2023-07-21T18:33:41.869Z,5.20
2023-07-21T18:37:03.802Z,5.50
2023-07-21T18:40:23.208Z,5.70
2023-07-21T18:43:42.350Z,6.30
2023-07-21T18:49:52.293Z,4.50
2023-07-21T18:53:03.253Z,4.80
2023-07-21T18:56:22.668Z,5.70
2023-07-21T18:59:34.067Z,5.00
2023-07-21T19:02:46.100Z,6.40
2023-07-21T19:06:06.254Z,5.80
2023-07-21T19:09:12.347Z,6.40
2023-07-21T19:12:30.747Z,5.80
2023-07-21T19:15:44.508Z,5.80
2023-07-21T19:18:56.168Z,4.80
2023-07-21T19:22:07.581Z,6.10
2023-07-21T19:25:26.936Z,6.00
2023-07-21T19:28:31.102Z,7.90
2023-07-21T19:31:43.548Z,8.00
2023-07-21T19:34:54.734Z,8.30
2023-07-21T19:38:21.235Z,8.70
2023-07-21T19:41:32.056Z,8.00
2023-07-21T19:44:52.375Z,7.50
2023-07-21T19:48:18.917Z,7.40
2023-07-21T19:51:29.684Z,7.50
2023-07-21T19:54:49.493Z,6.80
2023-07-21T19:57:54.671Z,6.90
2023-07-21T20:01:06.730Z,6.20
2023-07-21T20:04:18.980Z,5.80
2023-07-21T20:07:38.242Z,5.90
2023-07-21T20:10:49.414Z,5.30
2023-07-21T20:14:00.783Z,5.80
2023-07-21T20:17:12.815Z,5.70
2023-07-21T20:20:32.978Z,6.00
2023-07-21T20:23:52.170Z,6.50
2023-07-21T20:27:03.948Z,5.70
2023-07-21T20:30:24.104Z,6.00
2023-07-21T20:33:36.940Z,6.60
2023-07-21T20:36:48.291Z,6.90
2023-07-21T20:40:07.561Z,6.90
2023-07-21T20:46:26.027Z,7.60
2023-07-21T20:49:37.309Z,7.10
2023-07-21T20:52:48.370Z,6.90
2023-07-21T20:56:08.131Z,7.00
2023-07-21T20:59:35.561Z,6.40
2023-07-21T21:03:00.633Z,6.80
2023-07-21T21:06:20.073Z,6.70
2023-07-21T21:12:33.509Z,7.30
2023-07-21T21:15:45.260Z,6.40
2023-07-21T21:19:04.939Z,6.20
2023-07-21T21:22:17.161Z,5.70
2023-07-21T21:25:38.456Z,5.90
2023-07-21T21:28:49.396Z,6.30
2023-07-21T21:32:00.984Z,5.60
2023-07-21T21:35:13.318Z,5.40
2023-07-21T21:38:24.494Z,5.70
2023-07-21T21:41:55.012Z,6.00
2023-07-21T21:45:15.216Z,5.40
2023-07-21T21:48:28.819Z,5.50
2023-07-21T21:51:40.187Z,6.00
2023-07-21T21:54:51.908Z,6.10
2023-07-21T21:58:05.084Z,6.10
2023-07-21T22:01:18.276Z,5.70
2023-07-21T22:04:32.240Z,5.60
2023-07-21T22:07:46.578Z,6.00
2023-07-21T22:11:06.381Z,5.60
2023-07-21T22:14:18.282Z,5.40
2023-07-21T22:17:45.751Z,5.90
2023-07-21T22:20:59.172Z,5.30
2023-07-21T22:24:26.830Z,6.10
2023-07-21T22:27:40.899Z,5.40
2023-07-21T22:30:54.569Z,6.20
2023-07-21T22:34:15.167Z,5.90
2023-07-21T22:37:26.318Z,6.80
2023-07-21T22:40:38.640Z,6.40
2023-07-21T22:43:57.948Z,6.20
2023-07-21T22:47:11.683Z,6.10
2023-07-21T22:50:26.041Z,5.80
2023-07-21T22:53:36.021Z,5.90
2023-07-21T22:56:48.913Z,6.20
2023-07-21T23:00:01.287Z,7.10
2023-07-21T23:03:12.067Z,6.40
2023-07-21T23:06:31.436Z,5.90
2023-07-21T23:12:41.301Z,6.00
2023-07-21T23:15:52.367Z,6.00
2023-07-21T23:19:04.437Z,5.90
2023-07-21T23:22:15.242Z,5.60
2023-07-21T23:25:34.463Z,5.90
2023-07-21T23:28:45.769Z,6.00
2023-07-21T23:31:59.221Z,5.40
2023-07-21T23:35:10.350Z,5.60
2023-07-21T23:38:21.736Z,5.70
2023-07-21T23:41:41.840Z,5.90
2023-07-21T23:44:55.245Z,5.70
2023-07-21T23:48:06.082Z,5.70
2023-07-21T23:51:19.279Z,5.90
2023-07-21T23:54:38.366Z,6.50
2023-07-21T23:57:57.628Z,6.40
